createdAt,value
2023-01-08T00:01:50.559Z,5.75
2023-01-08T00:04:19.238Z,5.41
2023-01-08T00:06:47.556Z,5.36
2023-01-08T00:09:17.922Z,5.55
2023-01-08T00:11:49.390Z,4.98
2023-01-08T00:14:19.228Z,5.13
2023-01-08T00:16:47.646Z,5.38
2023-01-08T00:19:16.701Z,5.06
2023-01-08T00:21:45.026Z,5.08
2023-01-08T00:24:13.895Z,5.04
2023-01-08T00:26:43.758Z,5.41
2023-01-08T00:29:12.466Z,5.20
2023-01-08T00:31:40.642Z,5.19
2023-01-08T00:34:09.306Z,5.15
2023-01-08T00:36:37.591Z,5.16
2023-01-08T00:39:07.527Z,5.06
2023-01-08T00:41:35.884Z,5.00
2023-01-08T00:44:05.914Z,5.06
2023-01-08T00:46:34.318Z,4.95
2023-01-08T00:49:02.992Z,4.94
2023-01-08T00:51:31.345Z,4.72
2023-01-08T00:53:59.864Z,4.75
2023-01-08T00:56:28.149Z,4.77
2023-01-08T00:58:57.063Z,4.73
2023-01-08T01:01:27.155Z,4.90
2023-01-08T01:03:55.810Z,4.43
2023-01-08T01:06:24.080Z,4.50
2023-01-08T01:08:52.566Z,4.42
2023-01-08T01:11:23.580Z,4.58
2023-01-08T01:13:52.647Z,4.46
2023-01-08T01:16:21.032Z,4.13
2023-01-08T01:18:52.477Z,4.47
2023-01-08T01:21:25.086Z,4.54
2023-01-08T01:23:55.373Z,4.48
2023-01-08T01:26:24.052Z,4.15
2023-01-08T01:28:54.063Z,4.30
2023-01-08T01:31:22.686Z,4.08
2023-01-08T01:33:53.318Z,4.20
2023-01-08T01:36:23.844Z,4.19
2023-01-08T01:38:54.116Z,4.11
2023-01-08T01:41:27.393Z,4.31
2023-01-08T01:43:57.064Z,4.07
2023-01-08T01:46:38.464Z,4.48
2023-01-08T01:49:11.591Z,4.19
2023-01-08T01:51:41.991Z,4.16
2023-01-08T01:54:12.985Z,4.29
2023-01-08T01:56:41.133Z,3.82
2023-01-08T01:59:09.778Z,3.64
2023-01-08T02:01:38.272Z,3.84
2023-01-08T02:04:10.591Z,4.20
2023-01-08T02:06:39.943Z,3.90
2023-01-08T02:09:12.722Z,3.99
2023-01-08T02:11:47.635Z,4.18
2023-01-08T02:14:19.291Z,4.06
2023-01-08T02:16:52.059Z,4.15
2023-01-08T02:19:33.514Z,4.24
2023-01-08T02:22:06.685Z,4.18
2023-01-08T02:24:48.211Z,4.29
2023-01-08T02:27:18.632Z,4.21
2023-01-08T02:29:48.363Z,4.15
2023-01-08T02:32:16.793Z,3.87
2023-01-08T02:34:45.270Z,3.73
2023-01-08T02:37:13.565Z,3.78
2023-01-08T02:39:57.341Z,4.57
2023-01-08T02:42:34.816Z,4.35
2023-01-08T02:45:08.423Z,4.27
2023-01-08T02:47:39.646Z,4.30
2023-01-08T02:50:13.676Z,4.30
2023-01-08T02:52:49.268Z,4.15
2023-01-08T02:55:18.859Z,4.03
2023-01-08T02:57:48.663Z,4.01
2023-01-08T03:00:18.236Z,3.84
2023-01-08T03:02:48.907Z,3.82
2023-01-08T03:05:22.713Z,3.50
2023-01-08T03:07:51.121Z,3.26
2023-01-08T03:10:21.049Z,3.56
2023-01-08T03:12:55.341Z,3.76
2023-01-08T03:15:27.910Z,3.69
2023-01-08T03:17:59.738Z,3.75
2023-01-08T03:20:28.831Z,3.41
2023-01-08T03:22:58.850Z,3.58
2023-01-08T03:25:29.849Z,3.62
2023-01-08T03:28:02.832Z,3.73
2023-01-08T03:30:32.418Z,3.51
2023-01-08T03:33:02.501Z,3.62
2023-01-08T03:35:32.009Z,3.50
2023-01-08T03:38:05.928Z,3.69
2023-01-08T03:40:37.857Z,3.66
2023-01-08T03:43:07.526Z,3.64
2023-01-08T03:45:38.371Z,3.70
2023-01-08T03:48:07.338Z,3.61
2023-01-08T03:50:36.126Z,3.17
2023-01-08T03:53:04.580Z,3.40
2023-01-08T03:55:33.107Z,3.28
2023-01-08T03:58:01.354Z,3.15
2023-01-08T04:00:34.209Z,3.44
2023-01-08T04:03:05.042Z,3.22
2023-01-08T04:05:34.534Z,3.28
2023-01-08T04:08:02.881Z,3.35
2023-01-08T04:10:31.474Z,3.38
2023-01-08T04:12:59.804Z,3.41
2023-01-08T04:15:28.700Z,3.47
2023-01-08T04:17:58.473Z,3.76
2023-01-08T04:20:27.111Z,3.54
2023-01-08T04:22:55.500Z,3.46
2023-01-08T04:25:24.183Z,3.57
2023-01-08T04:27:52.488Z,3.63
2023-01-08T04:30:21.359Z,3.64
2023-01-08T04:32:49.537Z,3.60
2023-01-08T04:35:19.690Z,3.99
2023-01-08T04:37:47.921Z,3.74
2023-01-08T04:40:16.974Z,3.75
2023-01-08T04:42:45.324Z,3.54
2023-01-08T04:45:13.940Z,3.39
2023-01-08T04:47:42.658Z,3.30
2023-01-08T04:50:12.096Z,3.52
2023-01-08T04:52:41.782Z,3.64
2023-01-08T04:55:10.895Z,3.43
2023-01-08T04:57:39.267Z,3.40
2023-01-08T05:00:08.999Z,3.63
2023-01-08T05:02:38.043Z,3.53
2023-01-08T05:05:07.909Z,3.73
2023-01-08T05:07:36.299Z,3.57
2023-01-08T05:10:07.635Z,3.86
2023-01-08T05:12:36.041Z,3.51
2023-01-08T05:15:04.867Z,3.50
2023-01-08T05:17:33.342Z,3.52
2023-01-08T05:20:02.095Z,3.44
2023-01-08T05:22:30.534Z,3.55
2023-01-08T05:24:59.349Z,3.58
2023-01-08T05:27:29.528Z,3.93
2023-01-08T05:29:58.488Z,3.62
2023-01-08T05:32:26.774Z,3.55
2023-01-08T05:34:55.634Z,3.33
2023-01-08T05:37:23.991Z,3.21
2023-01-08T05:39:52.589Z,3.26
2023-01-08T05:42:20.916Z,3.20
2023-01-08T05:44:51.003Z,3.54
2023-01-08T05:47:19.341Z,3.26
2023-01-08T05:49:47.954Z,3.29
2023-01-08T05:52:16.251Z,3.34
2023-01-08T05:54:44.828Z,3.40
2023-01-08T05:57:13.409Z,3.49
2023-01-08T05:59:42.104Z,3.45
2023-01-08T06:02:12.052Z,3.77
2023-01-08T06:04:40.728Z,3.37
2023-01-08T06:07:09.105Z,3.39
2023-01-08T06:09:37.670Z,3.38
2023-01-08T06:12:06.176Z,3.54
2023-01-08T06:14:35.187Z,3.34
2023-01-08T06:17:03.422Z,3.33
2023-01-08T06:19:33.672Z,3.54
2023-01-08T06:22:01.973Z,3.38
2023-01-08T06:24:30.640Z,3.41
2023-01-08T06:26:59.194Z,3.52
2023-01-08T06:29:27.735Z,3.29
2023-01-08T06:31:59.193Z,3.51
2023-01-08T06:34:27.485Z,4.59
2023-01-08T06:36:57.334Z,4.15
2023-01-08T06:39:26.438Z,3.71
2023-01-08T06:41:55.897Z,3.57
2023-01-08T06:44:26.676Z,3.44
2023-01-08T06:46:55.391Z,3.53
2023-01-08T06:49:25.488Z,3.36
2023-01-08T06:51:54.680Z,3.44
2023-01-08T06:54:26.151Z,3.62
2023-01-08T06:56:54.686Z,3.21
2023-01-08T06:59:23.441Z,3.20
2023-01-08T07:01:52.089Z,3.09
2023-01-08T07:04:21.221Z,3.22
2023-01-08T07:06:49.698Z,3.16
2023-01-08T07:09:18.329Z,3.28
2023-01-08T07:11:48.005Z,3.72
2023-01-08T07:14:19.547Z,3.60
2023-01-08T07:16:47.979Z,3.67
2023-01-08T07:19:17.043Z,3.75
2023-01-08T07:21:45.683Z,3.89
2023-01-08T07:24:14.365Z,4.06
2023-01-08T07:26:42.812Z,4.30
2023-01-08T07:29:13.138Z,5.06
2023-01-08T07:31:41.699Z,5.05
2023-01-08T07:34:10.985Z,5.44
2023-01-08T07:36:39.399Z,5.68
2023-01-08T07:39:08.177Z,6.14
2023-01-08T07:41:36.570Z,6.28
2023-01-08T07:44:05.312Z,6.62
2023-01-08T07:46:35.080Z,7.41
2023-01-08T07:49:03.857Z,7.68
2023-01-08T07:51:32.361Z,8.11
2023-01-08T07:54:01.176Z,8.43
2023-01-08T07:56:29.874Z,9.07
2023-01-08T07:58:59.471Z,9.41
2023-01-08T08:01:28.030Z,9.93
2023-01-08T08:03:58.337Z,10.60
2023-01-08T08:06:26.641Z,10.55
2023-01-08T08:08:55.922Z,10.64
2023-01-08T08:11:24.609Z,10.20
2023-01-08T08:13:55.948Z,9.76
2023-01-08T08:16:25.444Z,9.53
2023-01-08T08:18:54.503Z,9.42
2023-01-08T08:21:24.936Z,9.57
2023-01-08T08:23:53.932Z,8.98
2023-01-08T08:26:23.287Z,8.43
2023-01-08T08:28:52.467Z,8.00
2023-01-08T08:31:21.345Z,7.78
2023-01-08T08:33:50.924Z,7.76
2023-01-08T08:36:19.517Z,7.73
2023-01-08T08:38:49.665Z,7.80
2023-01-08T08:41:19.030Z,7.48
2023-01-08T08:43:49.910Z,7.21
2023-01-08T08:46:18.711Z,7.28
2023-01-08T08:48:47.399Z,6.87
2023-01-08T08:51:15.945Z,6.80
2023-01-08T08:53:44.648Z,6.67
2023-01-08T08:56:14.359Z,7.07
2023-01-08T08:58:43.012Z,6.89
2023-01-08T09:01:11.342Z,6.93
2023-01-08T09:03:40.159Z,7.17
2023-01-08T09:06:14.283Z,7.61
2023-01-08T09:08:43.095Z,7.39
2023-01-08T09:11:14.174Z,7.75
2023-01-08T09:13:44.011Z,9.05
2023-01-08T09:16:12.604Z,8.76
2023-01-08T09:18:41.507Z,9.30
2023-01-08T09:21:10.170Z,10.08
2023-01-08T09:23:39.393Z,10.73
2023-01-08T09:26:08.120Z,10.92
2023-01-08T09:28:38.157Z,10.42
2023-01-08T09:31:08.358Z,9.96
2023-01-08T09:33:37.098Z,9.53
2023-01-08T09:36:06.178Z,9.65
2023-01-08T09:38:34.941Z,9.64
2023-01-08T09:41:06.404Z,10.37
2023-01-08T09:43:37.305Z,10.86
2023-01-08T09:46:08.880Z,12.12
2023-01-08T09:48:39.346Z,13.53
2023-01-08T09:51:10.485Z,14.16
2023-01-08T09:53:38.948Z,15.64
2023-01-08T09:56:13.151Z,16.12
2023-01-08T09:58:44.607Z,16.89
2023-01-08T10:01:16.221Z,18.33
2023-01-08T10:03:48.234Z,19.19
2023-01-08T10:06:17.896Z,20.00
2023-01-08T10:08:47.016Z,20.05
2023-01-08T10:11:16.635Z,19.78
2023-01-08T10:13:50.081Z,20.03
2023-01-08T10:16:26.569Z,20.31
2023-01-08T10:18:56.336Z,19.14
2023-01-08T10:21:30.960Z,18.55
2023-01-08T10:23:59.910Z,17.43
2023-01-08T10:26:31.121Z,16.95
2023-01-08T10:29:10.987Z,16.15
2023-01-08T10:31:52.419Z,15.41
2023-01-08T10:34:34.273Z,14.62
2023-01-08T10:37:02.783Z,13.97
2023-01-08T10:39:33.308Z,13.94
2023-01-08T10:42:06.549Z,13.94
2023-01-08T10:44:35.996Z,13.30
2023-01-08T10:47:06.808Z,13.64
2023-01-08T10:49:39.957Z,13.79
2023-01-08T10:52:25.783Z,14.17
2023-01-08T10:54:54.743Z,13.86
2023-01-08T10:57:26.020Z,14.87
2023-01-08T10:59:54.847Z,15.92
2023-01-08T11:02:39.600Z,17.62
2023-01-08T11:05:11.733Z,18.15
2023-01-08T11:07:44.549Z,18.93
2023-01-08T11:10:26.218Z,18.35
2023-01-08T11:12:57.868Z,19.07
2023-01-08T11:15:35.353Z,18.94
2023-01-08T11:18:14.752Z,18.92
2023-01-08T11:20:43.515Z,18.24
2023-01-08T11:23:20.765Z,18.57
2023-01-08T11:25:54.565Z,18.43
2023-01-08T11:28:28.634Z,18.49
2023-01-08T11:31:15.165Z,20.02
2023-01-08T11:33:46.688Z,20.06
2023-01-08T11:36:21.567Z,20.12
2023-01-08T11:38:50.889Z,20.36
2023-01-08T11:41:35.237Z,21.81
2023-01-08T11:44:14.760Z,22.89
2023-01-08T11:46:47.707Z,23.48
2023-01-08T11:49:43.232Z,24.50
2023-01-08T11:52:22.501Z,24.69
2023-01-08T11:55:04.146Z,25.20
2023-01-08T11:57:43.439Z,25.61
2023-01-08T12:00:20.675Z,25.92
2023-01-08T12:02:54.487Z,26.17
2023-01-08T12:05:37.797Z,26.67
2023-01-08T12:08:08.779Z,26.58
2023-01-08T12:10:47.194Z,26.67
2023-01-08T12:13:29.660Z,26.10
2023-01-08T12:16:08.097Z,24.46
2023-01-08T12:18:47.443Z,22.27
2023-01-08T12:21:23.344Z,20.38
2023-01-08T12:24:08.492Z,18.94
2023-01-08T12:26:44.720Z,17.80
2023-01-08T12:29:45.865Z,16.80
2023-01-08T12:32:27.766Z,16.01
2023-01-08T12:35:01.129Z,15.31
2023-01-08T12:37:36.563Z,14.86
2023-01-08T12:40:14.309Z,14.39
2023-01-08T12:42:47.430Z,13.78
2023-01-08T12:45:23.660Z,13.66
2023-01-08T12:47:56.516Z,13.41
2023-01-08T12:50:40.668Z,13.43
2023-01-08T12:53:15.692Z,13.09
2023-01-08T12:55:49.626Z,12.77
2023-01-08T12:58:29.148Z,12.73
2023-01-08T13:01:07.116Z,12.56
2023-01-08T13:03:35.543Z,12.04
2023-01-08T13:06:10.376Z,12.39
2023-01-08T13:08:41.946Z,12.32
2023-01-08T13:11:11.108Z,12.06
2023-01-08T13:13:41.888Z,12.25
2023-01-08T13:16:20.036Z,12.06
2023-01-08T13:18:56.845Z,11.76
2023-01-08T13:21:34.153Z,11.65
2023-01-08T13:24:06.928Z,11.73
2023-01-08T13:26:37.679Z,11.68
2023-01-08T13:29:24.991Z,12.07
2023-01-08T13:31:54.063Z,11.54
2023-01-08T13:34:24.734Z,11.89
2023-01-08T13:36:57.504Z,11.98
2023-01-08T13:39:33.890Z,11.89
2023-01-08T13:42:21.766Z,11.67
2023-01-08T13:44:51.701Z,11.62
2023-01-08T13:47:26.620Z,11.56
2023-01-08T13:49:56.380Z,11.38
2023-01-08T13:52:49.042Z,11.43
2023-01-08T13:55:21.892Z,11.27
2023-01-08T13:57:52.897Z,11.12
2023-01-08T14:00:25.499Z,11.06
2023-01-08T14:02:55.445Z,10.64
2023-01-08T14:05:28.130Z,10.96
2023-01-08T14:07:58.053Z,10.62
2023-01-08T14:10:28.565Z,10.70
2023-01-08T14:13:02.554Z,10.75
2023-01-08T14:15:31.137Z,10.34
2023-01-08T14:18:00.023Z,10.22
2023-01-08T14:20:33.194Z,10.51
2023-01-08T14:23:03.565Z,10.38
2023-01-08T14:25:33.655Z,10.36
2023-01-08T14:28:04.171Z,10.31
2023-01-08T14:30:33.190Z,10.08
2023-01-08T14:33:02.265Z,9.89
2023-01-08T14:35:34.133Z,9.99
2023-01-08T14:38:03.429Z,9.67
2023-01-08T14:40:36.005Z,9.95
2023-01-08T14:43:08.928Z,9.74
2023-01-08T14:45:38.569Z,9.50
2023-01-08T14:48:13.965Z,9.57
2023-01-08T14:50:44.393Z,9.48
2023-01-08T14:53:21.339Z,9.53
2023-01-08T14:55:52.152Z,9.38
2023-01-08T14:58:24.107Z,9.19
2023-01-08T15:00:54.806Z,8.90
2023-01-08T15:03:32.590Z,8.99
2023-01-08T15:06:01.536Z,8.24
2023-01-08T15:08:36.193Z,8.65
2023-01-08T15:11:09.854Z,8.62
2023-01-08T15:13:45.472Z,8.24
2023-01-08T15:16:30.315Z,8.67
2023-01-08T15:19:14.179Z,8.42
2023-01-08T15:21:50.300Z,8.42
2023-01-08T15:24:24.398Z,8.39
2023-01-08T15:26:56.661Z,8.36
2023-01-08T15:29:33.928Z,8.22
2023-01-08T15:32:19.319Z,8.35
2023-01-08T15:34:51.001Z,8.02
2023-01-08T15:37:20.774Z,7.97
2023-01-08T15:39:55.000Z,7.89
2023-01-08T15:45:33.434Z,8.07
2023-01-08T15:48:02.707Z,7.84
2023-01-08T15:50:38.475Z,7.89
2023-01-08T15:53:09.229Z,8.00
2023-01-08T15:55:47.035Z,7.69
2023-01-08T15:58:23.340Z,8.13
2023-01-08T16:00:52.813Z,7.69
2023-01-08T16:03:24.478Z,7.71
2023-01-08T16:06:08.840Z,7.63
2023-01-08T16:08:39.200Z,7.65
2023-01-08T16:11:11.932Z,7.58
2023-01-08T16:13:43.129Z,7.93
2023-01-08T16:16:13.837Z,7.74
2023-01-08T16:18:43.471Z,7.64
2023-01-08T16:21:13.299Z,7.51
2023-01-08T16:23:43.045Z,7.51
2023-01-08T16:26:13.815Z,7.49
2023-01-08T16:28:44.921Z,7.57
2023-01-08T16:31:15.345Z,7.92
2023-01-08T16:33:45.470Z,7.17
2023-01-08T16:36:16.088Z,7.08
2023-01-08T16:38:50.318Z,7.03
2023-01-08T16:41:24.567Z,6.95
2023-01-08T16:44:15.084Z,7.38
2023-01-08T16:46:47.172Z,6.73
2023-01-08T16:49:20.606Z,6.70
2023-01-08T16:52:01.052Z,6.77
2023-01-08T16:54:32.875Z,6.81
2023-01-08T16:57:02.298Z,6.91
2023-01-08T16:59:46.791Z,7.16
2023-01-08T17:02:16.942Z,6.83
2023-01-08T17:04:45.595Z,6.83
2023-01-08T17:07:15.291Z,6.95
2023-01-08T17:09:47.105Z,7.01
2023-01-08T17:12:22.741Z,7.16
2023-01-08T17:14:55.265Z,7.39
2023-01-08T17:17:25.867Z,7.09
2023-01-08T17:19:54.687Z,7.13
2023-01-08T17:22:24.480Z,7.10
2023-01-08T17:24:53.790Z,7.15
2023-01-08T17:27:25.804Z,6.99
2023-01-08T17:29:56.096Z,7.17
2023-01-08T17:32:26.576Z,7.21
2023-01-08T17:34:55.709Z,6.91
2023-01-08T17:37:30.130Z,6.99
2023-01-08T17:40:00.393Z,7.02
2023-01-08T17:42:32.822Z,6.95
2023-01-08T17:45:05.790Z,7.10
2023-01-08T17:47:38.027Z,6.94
2023-01-08T17:50:09.840Z,7.22
2023-01-08T17:52:54.213Z,7.25
2023-01-08T17:55:24.656Z,7.37
2023-01-08T17:57:56.874Z,7.34
2023-01-08T18:00:32.578Z,7.82
2023-01-08T18:03:03.751Z,7.58
2023-01-08T18:05:35.943Z,7.69
2023-01-08T18:08:04.989Z,7.64
2023-01-08T18:10:33.976Z,7.56
2023-01-08T18:13:02.653Z,7.64
2023-01-08T18:15:34.333Z,7.99
2023-01-08T18:18:07.074Z,7.63
2023-01-08T18:20:40.866Z,8.07
2023-01-08T18:23:11.000Z,7.87
2023-01-08T18:25:42.022Z,8.17
2023-01-08T18:28:10.977Z,7.90
2023-01-08T18:30:46.035Z,8.30
2023-01-08T18:33:14.915Z,8.02
2023-01-08T18:35:47.783Z,7.86
2023-01-08T18:38:17.143Z,7.72
2023-01-08T18:40:46.600Z,7.77
2023-01-08T18:43:16.113Z,7.63
2023-01-08T18:45:48.320Z,8.00
2023-01-08T18:48:17.094Z,7.55
2023-01-08T18:50:46.753Z,7.63
2023-01-08T18:53:15.536Z,7.64
2023-01-08T18:55:44.474Z,7.43
2023-01-08T18:58:13.123Z,7.34
2023-01-08T19:00:42.242Z,7.38
2023-01-08T19:03:12.615Z,7.54
2023-01-08T19:05:42.976Z,7.33
2023-01-08T19:08:11.642Z,7.13
2023-01-08T19:10:41.711Z,7.25
2023-01-08T19:13:12.300Z,6.83
2023-01-08T19:15:41.383Z,6.94
2023-01-08T19:18:11.529Z,7.30
2023-01-08T19:20:44.099Z,6.99
2023-01-08T19:23:13.270Z,6.95
2023-01-08T19:25:42.800Z,6.66
2023-01-08T19:28:11.578Z,6.52
2023-01-08T19:30:44.714Z,6.60
2023-01-08T19:33:17.062Z,6.81
2023-01-08T19:35:46.336Z,6.49
2023-01-08T19:38:15.045Z,6.58
2023-01-08T19:40:44.550Z,6.55
2023-01-08T19:43:45.819Z,6.54
2023-01-08T19:46:15.670Z,6.49
2023-01-08T19:48:46.057Z,6.91
2023-01-08T19:51:16.217Z,6.87
2023-01-08T19:53:44.976Z,6.52
2023-01-08T19:56:15.665Z,6.63
2023-01-08T19:58:44.918Z,6.52
2023-01-08T20:01:15.815Z,6.49
2023-01-08T20:03:46.825Z,6.75
2023-01-08T20:06:23.602Z,6.74
2023-01-08T20:08:55.829Z,6.69
2023-01-08T20:11:25.340Z,6.52
2023-01-08T20:13:55.731Z,6.69
2023-01-08T20:16:25.550Z,6.78
2023-01-08T20:18:59.409Z,6.69
2023-01-08T20:21:28.371Z,6.45
2023-01-08T20:23:59.904Z,6.80
2023-01-08T20:26:30.300Z,6.94
2023-01-08T20:28:59.582Z,6.89
2023-01-08T20:31:31.464Z,7.16
2023-01-08T20:34:02.093Z,7.86
2023-01-08T20:36:34.410Z,7.41
2023-01-08T20:39:06.346Z,7.53
2023-01-08T20:41:36.194Z,7.49
2023-01-08T20:44:08.119Z,7.71
2023-01-08T20:46:37.897Z,7.79
2023-01-08T20:49:11.210Z,7.97
2023-01-08T20:51:46.293Z,7.87
2023-01-08T20:54:19.941Z,7.47
2023-01-08T20:56:49.418Z,7.44
2023-01-08T20:59:18.847Z,7.32
2023-01-08T21:01:50.695Z,7.09
2023-01-08T21:04:21.539Z,7.81
2023-01-08T21:06:50.992Z,7.20
2023-01-08T21:09:19.869Z,7.01
2023-01-08T21:11:51.023Z,7.01
2023-01-08T21:14:19.780Z,7.00
2023-01-08T21:16:48.583Z,6.86
2023-01-08T21:19:17.588Z,6.97
2023-01-08T21:21:48.936Z,7.33
2023-01-08T21:24:19.651Z,6.97
2023-01-08T21:26:49.381Z,6.99
2023-01-08T21:29:21.054Z,7.08
2023-01-08T21:31:50.652Z,7.28
2023-01-08T21:34:19.734Z,7.19
2023-01-08T21:36:53.971Z,7.78
2023-01-08T21:39:25.219Z,7.59
2023-01-08T21:42:12.335Z,7.70
2023-01-08T21:44:58.432Z,7.86
2023-01-08T21:47:27.706Z,7.84
2023-01-08T21:49:56.283Z,7.88
2023-01-08T21:52:44.290Z,8.15
2023-01-08T21:55:13.153Z,7.91
2023-01-08T21:57:42.805Z,7.85
2023-01-08T22:00:13.221Z,8.11
2023-01-08T22:02:42.573Z,7.98
2023-01-08T22:05:11.717Z,8.03
2023-01-08T22:07:41.944Z,8.11
2023-01-08T22:10:11.803Z,7.99
2023-01-08T22:12:40.460Z,7.70
2023-01-08T22:15:10.509Z,7.86
2023-01-08T22:17:39.756Z,7.87
2023-01-08T22:20:10.696Z,7.78
2023-01-08T22:22:39.712Z,8.33
2023-01-08T22:25:10.501Z,7.88
2023-01-08T22:27:41.054Z,7.51
2023-01-08T22:30:11.099Z,7.67
2023-01-08T22:32:40.019Z,7.50
2023-01-08T22:35:09.097Z,7.72
2023-01-08T22:37:40.790Z,7.75
2023-01-08T22:40:13.022Z,8.24
2023-01-08T22:42:41.864Z,7.77
2023-01-08T22:45:11.065Z,7.95
2023-01-08T22:47:41.281Z,7.89
2023-01-08T22:50:15.989Z,8.10
2023-01-08T22:52:52.257Z,7.76
2023-01-08T22:55:22.318Z,8.07
2023-01-08T22:57:52.212Z,7.81
2023-01-08T23:00:21.549Z,7.78
2023-01-08T23:02:50.429Z,7.78
2023-01-08T23:05:18.929Z,7.82
2023-01-08T23:07:48.145Z,7.85
2023-01-08T23:10:16.963Z,7.92
2023-01-08T23:12:47.223Z,8.18
2023-01-08T23:15:15.675Z,7.82
2023-01-08T23:17:52.235Z,7.72
2023-01-08T23:20:23.447Z,7.93
2023-01-08T23:22:52.215Z,8.55
2023-01-08T23:25:20.602Z,7.50
2023-01-08T23:27:51.665Z,7.62
2023-01-08T23:30:20.124Z,7.33
2023-01-08T23:32:48.798Z,7.07
2023-01-08T23:35:17.687Z,6.98
2023-01-08T23:37:46.528Z,6.87
2023-01-08T23:40:16.165Z,6.90
2023-01-08T23:42:44.843Z,6.78
2023-01-08T23:45:14.795Z,6.99
2023-01-08T23:47:43.455Z,6.68
2023-01-08T23:50:12.724Z,6.91
2023-01-08T23:52:41.370Z,6.72
2023-01-08T23:55:10.608Z,6.89
2023-01-08T23:57:39.439Z,6.83
